Time;durP1;ratioP1;P1;durP2;ratioP2;P2;SDS_P1;SDS_P2;PMS_P1;PMS_P2;Temp;Humidity;BMP_temperature;BMP_pressure;BME280_temperature;BME280_humidity;BME280_pressure;Samples;Min_cycle;Max_cycle;Signal;HPM_P1;HPM_P2
2021/12/06 00:00:31;;;;;;;3.23;2.50;;;;;;;4.25;78.11;94719.28;4978071;28;20228;-84
2021/12/06 00:03:02;;;;;;;3.43;2.67;;;;;;;4.26;77.87;94719.13;4978351;28;20328;-84
2021/12/06 00:05:29;;;;;;;5.53;2.67;;;;;;;4.24;78.13;94725.34;4976452;28;20193;-83
2021/12/06 00:07:56;;;;;;;2.83;2.40;;;;;;;4.24;78.25;94722.78;4977232;28;20241;-86
2021/12/06 00:10:23;;;;;;;5.13;2.60;;;;;;;4.23;78.03;94723.78;4977110;28;20671;-84
2021/12/06 00:12:51;;;;;;;3.90;2.87;;;;;;;4.25;78.15;94725.19;4976809;28;20224;-84
2021/12/06 00:15:17;;;;;;;2.30;2.10;;;;;;;4.22;77.92;94722.97;4976875;28;20271;-84
2021/12/06 00:17:44;;;;;;;3.30;2.60;;;;;;;4.23;78.19;94722.03;4976748;28;20203;-83
2021/12/06 00:20:13;;;;;;;3.10;2.40;;;;;;;4.26;78.35;94734.41;4975663;28;20232;-84
2021/12/06 00:22:40;;;;;;;2.93;2.67;;;;;;;4.27;78.05;94735.22;4940701;28;1036421;-83
2021/12/06 00:25:09;;;;;;;2.90;2.70;;;;;;;4.30;78.02;94735.69;4976885;28;20444;-84
2021/12/06 00:27:38;;;;;;;3.77;3.33;;;;;;;4.25;77.91;94735.38;4977132;28;20295;-84
2021/12/06 00:30:14;;;;;;;4.27;3.60;;;;;;;4.25;78.36;94740.47;4977885;28;20263;-84
2021/12/06 00:32:42;;;;;;;5.50;3.80;;;;;;;4.27;78.03;94738.56;4977866;28;20237;-84
2021/12/06 00:35:16;;;;;;;4.63;4.23;;;;;;;4.28;78.32;94745.25;4977644;28;20212;-84
2021/12/06 00:37:53;;;;;;;5.33;4.57;;;;;;;4.31;78.33;94746.69;4977762;28;20204;-84
2021/12/06 00:40:20;;;;;;;6.13;4.07;;;;;;;4.28;78.44;94745.25;4977584;28;20683;-84
2021/12/06 00:42:46;;;;;;;5.93;4.20;;;;;;;4.27;78.61;94750.50;4975269;28;20215;-84
2021/12/06 00:45:15;;;;;;;4.50;4.10;;;;;;;4.27;78.63;94746.22;4977439;28;20309;-84
2021/12/06 00:47:41;;;;;;;5.83;3.97;;;;;;;4.22;78.85;94751.00;4976982;28;20200;-84
2021/12/06 00:50:11;;;;;;;5.30;4.10;;;;;;;4.26;78.62;94752.25;4976395;28;20244;-83
2021/12/06 00:52:38;;;;;;;4.67;3.90;;;;;;;4.31;78.62;94749.25;4976841;28;20235;-84
2021/12/06 00:55:06;;;;;;;4.40;4.00;;;;;;;4.29;78.69;94758.78;4979784;28;20204;-84
2021/12/06 00:57:33;;;;;;;5.37;4.10;;;;;;;4.31;79.08;94757.69;4979430;28;20200;-83
2021/12/06 01:00:00;;;;;;;7.47;3.97;;;;;;;4.34;79.03;94754.81;4978247;28;20238;-84
2021/12/06 01:02:28;;;;;;;4.17;3.77;;;;;;;4.40;79.06;94763.59;4978140;28;20216;-84
2021/12/06 01:04:54;;;;;;;4.10;3.70;;;;;;;4.44;78.68;94765.63;4977774;28;20599;-84
2021/12/06 01:07:36;;;;;;;4.10;3.70;;;;;;;4.47;78.88;94767.06;4978113;28;20208;-84
2021/12/06 01:10:04;;;;;;;5.80;3.80;;;;;;;4.46;78.86;94773.94;4977661;28;20731;-84
2021/12/06 01:12:34;;;;;;;5.17;3.73;;;;;;;4.38;79.07;94779.03;4977735;28;20465;-84
2021/12/06 01:15:01;;;;;;;4.20;3.80;;;;;;;4.37;79.32;94774.88;4977214;28;20444;-84
2021/12/06 01:17:28;;;;;;;4.13;3.60;;;;;;;4.38;79.60;94776.50;4978080;28;20222;-84
2021/12/06 01:20:04;;;;;;;5.07;3.30;;;;;;;4.39;79.59;94784.94;4978448;28;20867;-84
2021/12/06 01:22:43;;;;;;;4.13;3.53;;;;;;;4.39;79.30;94790.81;4977708;28;20863;-83
2021/12/06 01:25:22;;;;;;;5.50;4.20;;;;;;;4.40;79.34;94796.72;4976721;28;20196;-84
2021/12/06 01:28:16;;;;;;;5.67;4.77;;;;;;;4.42;79.32;94805.81;4976888;28;20263;-83
2021/12/06 01:30:56;;;;;;;5.80;5.20;;;;;;;4.42;79.25;94805.81;4976372;28;20658;-84
2021/12/06 01:34:08;;;;;;;5.80;5.20;;;;;;;4.37;79.96;94813.13;4976480;28;20219;-84
2021/12/06 01:39:25;;;;;;;8.23;6.50;;;;;;;4.33;80.42;94816.13;4976346;28;20305;-84
2021/12/06 01:41:57;;;;;;;8.50;7.50;;;;;;;4.34;80.90;94817.72;4976528;28;20200;-84
2021/12/06 01:44:27;;;;;;;9.37;8.10;;;;;;;4.31;80.59;94820.56;4976376;28;20302;-83
2021/12/06 01:46:56;;;;;;;9.80;8.70;;;;;;;4.27;80.99;94822.63;4981124;28;20210;-84
2021/12/06 01:49:26;;;;;;;12.53;9.20;;;;;;;4.26;81.17;94825.34;4985223;28;20625;-83
2021/12/06 01:51:57;;;;;;;11.97;8.73;;;;;;;4.18;81.79;94823.59;4979635;28;20208;-84
2021/12/06 01:54:24;;;;;;;10.90;9.37;;;;;;;4.21;81.34;94828.38;4978381;28;20835;-84
2021/12/06 01:56:53;;;;;;;12.67;9.77;;;;;;;4.19;81.86;94826.94;4978252;28;20211;-84
2021/12/06 01:59:22;;;;;;;12.33;10.60;;;;;;;4.15;82.44;94832.34;4976857;28;20231;-83
2021/12/06 02:01:48;;;;;;;12.90;10.80;;;;;;;4.21;82.54;94835.22;4978743;28;20211;-84
2021/12/06 02:04:15;;;;;;;12.20;10.50;;;;;;;4.27;81.98;94832.81;4979997;28;20220;-84
2021/12/06 02:06:45;;;;;;;12.80;10.60;;;;;;;4.29;81.60;94830.91;4979149;28;20204;-84
2021/12/06 02:09:17;;;;;;;13.63;11.60;;;;;;;4.18;82.54;94833.78;4979058;28;20239;-83
2021/12/06 02:11:45;;;;;;;14.23;10.63;;;;;;;4.11;82.96;94835.34;4979136;28;20220;-84
2021/12/06 02:14:25;;;;;;;11.90;10.43;;;;;;;4.17;83.03;94834.72;4979429;28;20224;-84
2021/12/06 02:17:03;;;;;;;12.67;11.33;;;;;;;4.20;82.29;94836.97;4979599;28;20204;-84
2021/12/06 02:19:35;;;;;;;13.90;11.13;;;;;;;4.27;82.12;94832.81;4979535;28;20227;-84
2021/12/06 02:22:05;;;;;;;12.20;10.83;;;;;;;4.33;81.57;94839.84;4978243;28;20408;-84
2021/12/06 02:24:34;;;;;;;12.87;11.27;;;;;;;4.28;81.65;94839.53;4980006;28;20263;-84
2021/12/06 02:27:02;;;;;;;11.97;10.77;;;;;;;4.28;81.37;94838.72;4979540;28;20211;-83
2021/12/06 02:29:29;;;;;;;11.10;10.00;;;;;;;4.29;81.77;94845.41;4979175;28;20343;-84
2021/12/06 02:31:55;;;;;;;12.90;11.23;;;;;;;4.33;81.32;94839.84;4978800;28;20196;-84
2021/12/06 02:34:22;;;;;;;12.67;11.20;;;;;;;4.35;81.20;94839.69;4979744;28;20248;-84
2021/12/06 02:36:49;;;;;;;13.30;11.13;;;;;;;4.36;81.41;94838.75;4978963;28;20204;-84
2021/12/06 02:39:21;;;;;;;13.00;11.67;;;;;;;4.24;81.97;94842.53;4979619;28;20662;-83
2021/12/06 02:41:51;;;;;;;12.97;10.73;;;;;;;4.28;81.65;94842.06;4979389;28;20205;-84
2021/12/06 02:44:17;;;;;;;12.27;10.27;;;;;;;4.34;81.55;94841.44;4979525;28;20247;-84
2021/12/06 02:46:44;;;;;;;14.03;10.87;;;;;;;4.39;81.11;94838.44;4978800;28;20226;-84
2021/12/06 02:49:11;;;;;;;11.43;10.20;;;;;;;4.42;80.80;94840.69;4979186;28;20263;-84
2021/12/06 02:51:38;;;;;;;11.40;10.30;;;;;;;4.43;80.68;94843.03;4979491;28;20196;-84
2021/12/06 02:54:04;;;;;;;13.13;10.67;;;;;;;4.44;80.68;94848.94;4979249;28;20594;-84
2021/12/06 02:56:39;;;;;;;11.63;10.23;;;;;;;4.42;80.48;94851.69;4978955;28;20706;-84
2021/12/06 02:59:08;;;;;;;12.20;10.93;;;;;;;4.39;80.61;94853.72;4978224;28;20901;-84
2021/12/06 03:01:39;;;;;;;12.23;10.83;;;;;;;4.39;80.39;94853.72;4978855;28;20208;-84
2021/12/06 03:04:06;;;;;;;12.97;10.23;;;;;;;4.39;80.70;94862.19;4979474;28;20223;-84
2021/12/06 03:06:34;;;;;;;12.97;10.83;;;;;;;4.39;81.01;94857.06;4978406;28;20208;-84
2021/12/06 03:09:06;;;;;;;11.83;9.97;;;;;;;4.42;80.69;94861.88;4978477;28;20247;-83
2021/12/06 03:11:37;;;;;;;11.00;9.53;;;;;;;4.44;80.78;94867.56;4978085;28;20199;-84
2021/12/06 03:14:04;;;;;;;11.87;9.60;;;;;;;4.47;80.37;94869.03;4978901;28;20255;-84
2021/12/06 03:16:31;;;;;;;11.10;9.97;;;;;;;4.43;80.71;94870.28;4978089;28;20711;-84
2021/12/06 03:18:58;;;;;;;10.63;9.53;;;;;;;4.52;80.68;94877.00;4978973;28;20251;-84
2021/12/06 03:21:25;;;;;;;10.73;9.63;;;;;;;4.51;80.86;94873.66;4978430;28;20220;-84
2021/12/06 03:23:53;;;;;;;10.23;9.13;;;;;;;4.53;80.77;94877.81;4978589;28;20236;-84
2021/12/06 03:26:19;;;;;;;10.83;9.73;;;;;;;4.53;80.39;94880.34;4977963;28;20575;-83
2021/12/06 03:28:48;;;;;;;11.20;10.00;;;;;;;4.58;80.26;94873.84;4978190;28;20211;-83
2021/12/06 03:31:16;;;;;;;12.77;10.23;;;;;;;4.58;80.21;94870.50;4979153;28;20223;-84
2021/12/06 03:33:46;;;;;;;10.57;9.43;;;;;;;4.59;80.32;94882.28;4978386;28;20231;-84
2021/12/06 03:36:13;;;;;;;12.17;10.50;;;;;;;4.59;80.03;94882.28;4977664;28;20577;-84
2021/12/06 03:38:41;;;;;;;11.97;10.13;;;;;;;4.53;80.15;94886.25;4978923;28;20235;-84
2021/12/06 03:41:09;;;;;;;12.63;10.10;;;;;;;4.51;80.47;94894.03;4978700;28;20220;-84
2021/12/06 03:43:37;;;;;;;13.60;10.10;;;;;;;4.51;80.22;94890.69;4979242;28;20227;-84
2021/12/06 03:46:05;;;;;;;10.73;9.70;;;;;;;4.46;80.82;94893.72;4977036;28;20204;-84
2021/12/06 03:48:32;;;;;;;12.37;10.07;;;;;;;4.47;80.51;94895.31;4977835;28;20274;-84
2021/12/06 03:50:59;;;;;;;12.80;10.20;;;;;;;4.49;80.57;94902.78;4976907;28;20231;-84
2021/12/06 03:53:25;;;;;;;11.43;9.93;;;;;;;4.43;80.89;94911.84;4977705;28;20253;-84
2021/12/06 03:55:52;;;;;;;15.27;10.50;;;;;;;4.42;81.13;94909.50;4976143;28;20200;-84
2021/12/06 03:58:19;;;;;;;12.20;10.83;;;;;;;4.37;81.56;94915.03;4977392;28;20208;-83
2021/12/06 04:00:45;;;;;;;14.17;10.73;;;;;;;4.42;80.89;94915.38;4976421;28;20283;-84
2021/12/06 04:03:13;;;;;;;11.93;10.53;;;;;;;4.44;80.77;94913.44;4977184;28;20837;-84
2021/12/06 04:05:40;;;;;;;12.97;11.20;;;;;;;4.48;80.93;94922.38;4979637;28;20200;-84
2021/12/06 04:08:07;;;;;;;12.63;10.80;;;;;;;4.50;80.33;94920.50;4982890;28;20207;-84
2021/12/06 04:10:33;;;;;;;12.97;10.23;;;;;;;4.52;80.50;94922.88;4979851;28;20312;-84
2021/12/06 04:13:00;;;;;;;13.03;10.93;;;;;;;4.51;80.46;94917.00;4981042;28;20711;-84
2021/12/06 04:15:29;;;;;;;14.63;10.80;;;;;;;4.53;80.63;94923.69;4980570;28;20197;-84
2021/12/06 04:17:56;;;;;;;12.73;10.93;;;;;;;4.50;80.23;94922.22;4981519;28;20296;-84
2021/12/06 04:20:23;;;;;;;13.93;11.90;;;;;;;4.46;80.48;94929.38;4980265;28;20228;-84
2021/12/06 04:22:51;;;;;;;13.37;11.27;;;;;;;4.48;80.71;94935.13;4983206;28;20659;-84
2021/12/06 04:25:18;;;;;;;15.33;11.57;;;;;;;4.48;80.78;94935.13;4987288;28;20193;-84
2021/12/06 04:27:51;;;;;;;14.33;11.37;;;;;;;4.47;80.91;94932.72;4988461;28;20211;-84
2021/12/06 04:30:19;;;;;;;14.60;12.00;;;;;;;4.46;80.81;94931.13;4968527;28;20229;-84
2021/12/06 04:32:47;;;;;;;14.83;12.07;;;;;;;4.45;81.26;94937.19;4986345;28;20251;-84
2021/12/06 04:35:14;;;;;;;13.03;10.43;;;;;;;4.42;81.43;94940.88;4987608;28;20202;-83
2021/12/06 04:37:42;;;;;;;15.10;11.50;;;;;;;4.42;81.20;94940.06;4987191;28;20208;-84
2021/12/06 04:40:10;;;;;;;13.63;11.40;;;;;;;4.40;81.66;94947.06;4986496;28;20267;-84
2021/12/06 04:42:36;;;;;;;15.30;11.97;;;;;;;4.37;81.40;94939.72;4980098;28;20212;-84
2021/12/06 04:45:03;;;;;;;16.50;12.40;;;;;;;4.34;81.90;94947.69;4981313;28;20271;-83
2021/12/06 04:47:29;;;;;;;16.23;11.83;;;;;;;4.33;82.09;94941.78;4979476;28;20196;-84
2021/12/06 04:49:56;;;;;;;16.37;12.37;;;;;;;4.34;82.12;94950.22;4976889;28;20234;-84
2021/12/06 04:52:24;;;;;;;14.53;12.30;;;;;;;4.39;82.01;94960.75;4979321;28;20204;-84
2021/12/06 04:54:56;;;;;;;16.83;12.20;;;;;;;4.41;81.88;94966.50;4978745;28;20228;-84
2021/12/06 04:57:36;;;;;;;15.00;12.20;;;;;;;4.40;82.31;94972.56;4979604;28;20266;-84
2021/12/06 05:00:10;;;;;;;15.67;10.93;;;;;;;4.42;82.26;94968.91;4978996;28;20239;-83
2021/12/06 05:02:38;;;;;;;13.47;11.50;;;;;;;4.49;81.67;94977.50;4979000;28;20228;-83
2021/12/06 05:05:09;;;;;;;15.27;11.80;;;;;;;4.47;81.43;94983.72;4978933;28;20244;-83
2021/12/06 05:07:42;;;;;;;14.20;11.67;;;;;;;4.44;82.02;94984.00;4978771;28;20200;-83
2021/12/06 05:10:17;;;;;;;14.00;11.70;;;;;;;4.43;82.14;94985.75;4978280;28;20228;-84
2021/12/06 05:12:44;;;;;;;15.00;11.63;;;;;;;4.44;82.45;94986.56;4980508;28;20231;-84
2021/12/06 05:15:12;;;;;;;15.50;11.67;;;;;;;4.39;82.53;94988.78;4979222;28;20228;-84
2021/12/06 05:17:39;;;;;;;13.73;11.43;;;;;;;4.35;82.94;94995.13;4979253;28;20208;-83
2021/12/06 05:20:06;;;;;;;15.43;11.67;;;;;;;4.40;82.23;94992.94;4978002;28;20234;-83
2021/12/06 05:22:34;;;;;;;15.03;11.70;;;;;;;4.38;82.19;94984.66;4977628;28;20251;-83
2021/12/06 05:25:01;;;;;;;15.17;12.10;;;;;;;4.31;82.84;94993.84;4978517;28;20196;-83
2021/12/06 05:27:30;;;;;;;16.53;12.50;;;;;;;4.30;82.82;94995.59;4978851;28;20700;-83
2021/12/06 05:30:00;;;;;;;13.83;12.10;;;;;;;4.30;82.73;95003.22;4976980;28;20247;-85
2021/12/06 05:32:30;;;;;;;15.40;11.90;;;;;;;4.29;82.86;95003.38;4977544;28;20852;-83
2021/12/06 05:35:03;;;;;;;15.40;12.60;;;;;;;4.26;83.37;95009.56;4978303;28;20200;-83
2021/12/06 05:37:31;;;;;;;16.83;12.43;;;;;;;4.30;83.19;95010.06;4978165;28;20208;-83
2021/12/06 05:39:58;;;;;;;13.80;11.93;;;;;;;4.29;83.72;95016.13;4977696;28;20302;-83
2021/12/06 05:42:26;;;;;;;12.80;11.20;;;;;;;4.40;90.48;95015.88;4968848;28;20280;-83
2021/12/06 05:44:54;;;;;;;16.63;11.53;;;;;;;4.45;83.48;95009.34;4974583;28;20215;-83
2021/12/06 05:47:20;;;;;;;13.43;11.27;;;;;;;4.46;82.75;95021.13;4976247;28;20215;-83
2021/12/06 05:49:47;;;;;;;14.90;11.47;;;;;;;4.44;82.70;95025.59;4976880;28;20241;-83
2021/12/06 05:52:14;;;;;;;14.20;11.77;;;;;;;4.44;82.56;95035.78;4978274;28;20216;-83
2021/12/06 05:54:40;;;;;;;13.67;11.57;;;;;;;4.45;82.64;95036.59;4977009;28;20207;-83
2021/12/06 05:57:09;;;;;;;13.50;12.03;;;;;;;4.44;82.44;95033.22;4975413;28;20200;-83
2021/12/06 05:59:37;;;;;;;14.13;11.37;;;;;;;4.48;82.40;95038.84;4972580;28;20263;-83
2021/12/06 06:02:06;;;;;;;14.33;11.97;;;;;;;4.46;82.27;95040.72;4976972;28;20722;-83
2021/12/06 06:04:33;;;;;;;13.17;11.50;;;;;;;4.41;82.20;95048.06;4976339;28;20228;-82
2021/12/06 06:07:00;;;;;;;16.83;12.20;;;;;;;4.39;82.46;95050.75;4976818;28;20699;-83
2021/12/06 06:09:27;;;;;;;17.37;12.57;;;;;;;4.33;82.89;95056.44;4976977;28;20310;-85
2021/12/06 06:11:53;;;;;;;16.20;11.37;;;;;;;4.19;83.94;95061.31;4977909;28;20224;-83
2021/12/06 06:14:19;;;;;;;15.57;12.50;;;;;;;4.24;83.91;95064.97;4974821;28;20228;-83
2021/12/06 06:16:49;;;;;;;15.17;12.03;;;;;;;4.19;85.25;95071.50;4976814;28;20204;-83
2021/12/06 06:19:19;;;;;;;14.17;11.53;;;;;;;4.23;84.64;95073.59;4975405;28;20251;-83
2021/12/06 06:21:47;;;;;;;14.77;11.30;;;;;;;4.21;84.79;95078.03;4975050;28;20207;-82
2021/12/06 06:24:14;;;;;;;15.30;12.43;;;;;;;4.23;84.62;95081.25;4974831;28;20306;-82
2021/12/06 06:26:40;;;;;;;15.13;11.57;;;;;;;4.22;84.66;95089.84;4978036;28;20217;-82
2021/12/06 06:29:08;;;;;;;19.07;12.53;;;;;;;4.24;91.84;95090.47;4976328;28;20691;-83
2021/12/06 06:31:35;;;;;;;14.43;12.17;;;;;;;4.24;88.96;95093.00;4977167;28;20253;-83
2021/12/06 06:34:01;;;;;;;15.10;13.13;;;;;;;4.28;84.79;95091.75;4977962;28;20220;-83
2021/12/06 06:36:29;;;;;;;26.50;20.07;;;;;;;4.32;84.03;95103.25;4977911;28;20203;-82
2021/12/06 06:38:55;;;;;;;19.27;14.53;;;;;;;4.26;84.23;95103.84;4976352;28;20204;-82
2021/12/06 06:41:22;;;;;;;14.87;11.80;;;;;;;4.23;83.81;95106.72;4977117;28;20219;-83
2021/12/06 06:43:49;;;;;;;14.80;12.47;;;;;;;4.22;83.84;95106.88;4976296;28;20227;-83
2021/12/06 06:46:15;;;;;;;15.47;12.10;;;;;;;4.25;83.81;95111.66;4975990;28;20196;-82
2021/12/06 06:48:42;;;;;;;15.67;12.37;;;;;;;4.25;83.77;95112.44;4980404;28;20254;-83
2021/12/06 06:51:08;;;;;;;15.40;12.13;;;;;;;4.25;83.79;95116.75;4981346;28;20255;-82
2021/12/06 06:53:36;;;;;;;15.30;12.73;;;;;;;4.17;84.38;95120.03;4981337;28;20232;-83
2021/12/06 06:56:03;;;;;;;18.60;12.60;;;;;;;4.18;84.86;95123.41;4979722;28;20208;-83
2021/12/06 06:58:29;;;;;;;18.27;13.23;;;;;;;4.23;84.87;95129.66;4980101;28;20196;-83
2021/12/06 07:00:56;;;;;;;17.23;12.87;;;;;;;4.29;83.67;95128.25;4980783;28;20658;-83
2021/12/06 07:03:23;;;;;;;15.77;12.60;;;;;;;4.29;83.59;95134.13;4979763;28;20232;-83
2021/12/06 07:05:49;;;;;;;17.17;13.07;;;;;;;4.33;83.29;95140.53;4978752;28;20205;-83
2021/12/06 07:08:16;;;;;;;15.73;12.30;;;;;;;4.35;83.34;95145.50;4978857;28;20208;-83
2021/12/06 07:10:45;;;;;;;15.37;11.87;;;;;;;4.29;83.88;95154.53;4980549;28;20235;-83
2021/12/06 07:13:12;;;;;;;16.03;12.23;;;;;;;4.29;83.60;95151.16;4981173;28;20311;-83
2021/12/06 07:15:39;;;;;;;16.83;13.37;;;;;;;4.29;83.44;95161.34;4981344;28;20319;-83
2021/12/06 07:18:06;;;;;;;20.37;15.60;;;;;;;4.21;84.11;95166.41;4979439;28;20204;-83
2021/12/06 07:20:33;;;;;;;22.50;15.13;;;;;;;4.21;84.49;95169.75;4980100;28;20467;-83
2021/12/06 07:23:00;;;;;;;17.60;13.23;;;;;;;4.28;84.51;95172.50;4983362;28;20252;-83
2021/12/06 07:25:28;;;;;;;19.53;13.47;;;;;;;4.26;84.49;95175.19;4986876;28;20204;-83
2021/12/06 07:27:59;;;;;;;15.23;12.37;;;;;;;4.32;84.46;95172.06;4986566;28;20215;-83
2021/12/06 07:30:25;;;;;;;15.80;12.67;;;;;;;4.37;83.68;95167.34;4986203;28;20236;-83
2021/12/06 07:32:52;;;;;;;17.20;13.57;;;;;;;4.36;83.44;95175.91;4986750;28;20810;-83
2021/12/06 07:35:19;;;;;;;17.37;12.70;;;;;;;4.34;83.53;95177.81;4987585;28;20214;-83
2021/12/06 07:37:45;;;;;;;15.47;12.63;;;;;;;4.40;83.26;95186.63;4985780;28;20200;-83
2021/12/06 07:40:14;;;;;;;16.77;13.87;;;;;;;4.37;83.26;95185.16;4978447;28;20619;-84
2021/12/06 07:42:41;;;;;;;16.33;12.27;;;;;;;4.37;83.30;95186.91;4976377;28;20235;-85
2021/12/06 07:45:13;;;;;;;16.00;12.10;;;;;;;4.38;83.23;95191.88;4976652;28;20196;-85
2021/12/06 07:47:40;;;;;;;17.53;14.87;;;;;;;4.36;84.09;95195.50;4976572;28;20263;-85
2021/12/06 07:50:10;;;;;;;22.23;17.33;;;;;;;4.29;84.17;95195.28;4975651;28;20715;-85
2021/12/06 07:52:41;;;;;;;26.20;20.00;;;;;;;4.31;83.84;95195.94;4975468;28;20585;-85
2021/12/06 07:55:12;;;;;;;16.50;13.10;;;;;;;4.33;83.41;95203.44;4975042;28;20212;-84
2021/12/06 07:57:39;;;;;;;15.50;13.00;;;;;;;4.33;83.54;95206.00;4975822;28;20883;-84
2021/12/06 08:00:11;;;;;;;15.37;12.33;;;;;;;4.30;83.14;95207.09;4978758;28;20236;-83
2021/12/06 08:02:38;;;;;;;14.33;12.13;;;;;;;4.33;83.34;95204.25;4982108;28;20819;-83
2021/12/06 08:07:47;;;;;;;16.90;12.50;;;;;;;4.40;82.70;95204.47;4981357;28;20267;-83
2021/12/06 08:10:14;;;;;;;15.23;12.20;;;;;;;4.40;82.68;95212.91;4981843;28;20259;-82
2021/12/06 08:12:41;;;;;;;16.90;12.03;;;;;;;4.38;82.99;95214.81;4981347;28;20228;-83
2021/12/06 08:15:10;;;;;;;16.33;12.33;;;;;;;4.36;82.63;95216.69;4981548;28;20231;-83
2021/12/06 08:17:37;;;;;;;15.27;12.20;;;;;;;4.30;82.64;95219.81;4981996;28;20707;-83
2021/12/06 08:20:07;;;;;;;16.17;12.93;;;;;;;4.27;82.75;95226.97;4981278;28;20239;-83
2021/12/06 08:22:33;;;;;;;17.03;11.80;;;;;;;4.26;83.30;95227.91;4981812;28;20264;-83
2021/12/06 08:25:00;;;;;;;14.87;11.83;;;;;;;4.19;83.92;95230.25;4981033;28;20207;-82
2021/12/06 08:27:27;;;;;;;14.53;11.70;;;;;;;4.24;83.66;95232.34;4981073;28;20208;-83
2021/12/06 08:29:54;;;;;;;16.47;12.13;;;;;;;4.11;85.48;95223.31;4980697;28;20242;-82
2021/12/06 08:32:21;;;;;;;16.10;11.80;;;;;;;4.13;86.36;95236.72;4981021;28;20224;-83
2021/12/06 08:34:48;;;;;;;17.03;11.83;;;;;;;4.15;86.42;95236.56;4981199;28;20611;-83
2021/12/06 08:37:15;;;;;;;16.23;12.43;;;;;;;4.23;84.50;95239.22;4981293;28;20212;-83
2021/12/06 08:39:42;;;;;;;16.30;12.50;;;;;;;4.29;83.43;95242.91;4980586;28;20228;-83
2021/12/06 08:42:08;;;;;;;14.40;11.70;;;;;;;4.27;83.65;95242.25;4980402;28;20207;-82
2021/12/06 08:44:35;;;;;;;15.73;11.80;;;;;;;4.32;83.22;95237.53;4980497;28;20208;-82
2021/12/06 08:47:04;;;;;;;16.80;12.20;;;;;;;4.40;82.73;95237.59;4980748;28;20208;-83
2021/12/06 08:49:32;;;;;;;17.03;12.20;;;;;;;4.45;82.87;95243.84;4980609;28;20239;-82
2021/12/06 08:51:59;;;;;;;16.87;12.60;;;;;;;4.49;82.50;95247.69;4981355;28;20232;-83
2021/12/06 08:54:29;;;;;;;17.87;12.87;;;;;;;4.51;82.24;95253.44;4980153;28;20752;-83
2021/12/06 08:56:57;;;;;;;19.70;13.20;;;;;;;4.57;82.39;95261.47;4980555;28;20212;-83
2021/12/06 08:59:25;;;;;;;18.53;13.57;;;;;;;4.48;81.72;95258.03;4977784;28;20232;-83
2021/12/06 09:01:54;;;;;;;19.00;13.00;;;;;;;4.44;81.77;95267.72;4980367;28;20240;-83
2021/12/06 09:04:22;;;;;;;24.97;16.53;;;;;;;4.35;82.65;95273.72;4981205;28;20257;-83
2021/12/06 09:06:52;;;;;;;18.17;13.80;;;;;;;4.33;82.91;95269.69;4982675;28;20646;-82
2021/12/06 09:09:21;;;;;;;17.17;13.40;;;;;;;4.30;83.42;95275.09;4977947;28;20228;-82
2021/12/06 09:11:49;;;;;;;19.47;13.40;;;;;;;4.36;82.78;95264.31;4975719;28;20227;-82
2021/12/06 09:14:17;;;;;;;17.70;12.80;;;;;;;4.36;82.36;95270.22;4979951;28;20220;-83
2021/12/06 09:16:45;;;;;;;18.67;13.57;;;;;;;4.33;82.36;95278.16;4980900;28;20208;-83
2021/12/06 09:19:15;;;;;;;17.93;13.13;;;;;;;4.41;82.79;95279.97;4979908;28;20260;-82
2021/12/06 09:21:43;;;;;;;17.87;13.27;;;;;;;4.45;82.24;95283.81;4980051;28;20210;-82
2021/12/06 09:24:14;;;;;;;20.50;13.80;;;;;;;4.47;81.76;95276.81;4978872;28;20323;-82
2021/12/06 09:26:41;;;;;;;20.53;13.33;;;;;;;4.45;82.06;95284.63;4979390;28;20208;-82
2021/12/06 09:29:08;;;;;;;18.50;12.53;;;;;;;4.41;81.99;95282.53;4978717;28;20235;-82
2021/12/06 09:31:34;;;;;;;19.07;13.63;;;;;;;4.45;82.01;95284.63;4980193;28;20868;-82
2021/12/06 09:34:01;;;;;;;21.20;13.80;;;;;;;4.46;82.31;95283.66;4979227;28;20557;-83
2021/12/06 09:36:28;;;;;;;16.93;12.57;;;;;;;4.44;82.21;95283.00;4979045;28;20262;-82
2021/12/06 09:38:55;;;;;;;16.67;12.30;;;;;;;4.39;81.72;95276.78;4979756;28;20211;-82
2021/12/06 09:41:26;;;;;;;17.63;12.73;;;;;;;4.38;81.42;95283.63;4979356;28;20215;-82
2021/12/06 09:43:55;;;;;;;17.90;12.87;;;;;;;4.37;82.13;95276.91;4979392;28;20231;-82
2021/12/06 09:46:22;;;;;;;18.77;13.30;;;;;;;4.35;81.99;95281.34;4978622;28;20231;-82
2021/12/06 09:48:49;;;;;;;17.80;13.07;;;;;;;4.37;81.75;95278.66;4978217;28;20204;-82
2021/12/06 09:51:18;;;;;;;19.43;13.13;;;;;;;4.41;81.35;95269.78;4978108;28;20220;-83
2021/12/06 09:53:47;;;;;;;19.90;12.77;;;;;;;4.45;81.45;95276.97;4977910;28;20228;-82
2021/12/06 09:56:17;;;;;;;18.57;13.23;;;;;;;4.52;81.39;95269.53;4977841;28;20344;-82
2021/12/06 09:58:46;;;;;;;20.17;13.40;;;;;;;4.58;81.40;95276.63;4977429;28;20214;-82
2021/12/06 10:01:16;;;;;;;18.73;13.40;;;;;;;4.56;81.57;95275.97;4978687;28;20211;-82
2021/12/06 10:03:46;;;;;;;18.33;13.63;;;;;;;4.64;81.51;95272.66;4977072;28;20227;-82
2021/12/06 10:06:13;;;;;;;18.27;13.03;;;;;;;4.69;82.04;95278.13;4977244;28;20575;-82
2021/12/06 10:08:44;;;;;;;20.77;14.33;;;;;;;4.57;81.42;95271.66;4977818;28;20235;-83
2021/12/06 10:11:12;;;;;;;16.40;12.00;;;;;;;4.51;81.83;95278.94;4976897;28;20553;-83
2021/12/06 10:13:39;;;;;;;17.63;13.40;;;;;;;4.58;81.82;95278.38;4977342;28;20623;-82
2021/12/06 10:16:08;;;;;;;19.27;13.00;;;;;;;4.65;81.81;95266.59;4976814;28;20232;-82
2021/12/06 10:18:35;;;;;;;20.63;13.07;;;;;;;4.66;81.72;95263.91;4977284;28;20597;-82
2021/12/06 10:21:02;;;;;;;18.43;12.93;;;;;;;4.67;81.96;95268.06;4976866;28;20307;-82
2021/12/06 10:23:29;;;;;;;37.60;24.93;;;;;;;4.71;82.04;95258.38;4981102;28;20548;-83
2021/12/06 10:25:57;;;;;;;21.10;14.53;;;;;;;4.73;81.51;95274.34;4981390;28;20204;-83
2021/12/06 10:28:28;;;;;;;18.23;12.00;;;;;;;4.59;81.42;95269.78;4982156;28;20321;-82
2021/12/06 10:30:57;;;;;;;15.90;11.63;;;;;;;4.60;81.46;95271.38;4981022;28;20231;-82
2021/12/06 10:33:28;;;;;;;15.40;11.57;;;;;;;4.62;81.68;95262.59;4982742;28;20238;-82
2021/12/06 10:35:58;;;;;;;14.03;10.60;;;;;;;4.61;81.29;95270.44;4982076;28;20299;-82
2021/12/06 10:38:27;;;;;;;14.00;10.47;;;;;;;4.54;81.22;95267.66;4981162;28;20208;-82
2021/12/06 10:40:57;;;;;;;13.47;11.00;;;;;;;4.51;81.61;95273.03;4980252;28;20251;-82
2021/12/06 10:43:24;;;;;;;12.60;10.57;;;;;;;4.47;82.18;95274.28;4979971;28;20216;-83
2021/12/06 10:45:51;;;;;;;16.30;11.03;;;;;;;4.46;81.56;95277.78;4981555;28;20201;-83
2021/12/06 10:48:20;;;;;;;12.73;9.97;;;;;;;4.50;81.22;95272.25;4982343;28;20204;-82
2021/12/06 10:50:57;;;;;;;13.60;10.17;;;;;;;4.47;80.86;95272.53;4980392;28;20617;-82
2021/12/06 10:53:27;;;;;;;13.07;10.27;;;;;;;4.42;81.50;95277.28;4979768;28;20231;-83
2021/12/06 10:55:56;;;;;;;12.60;9.67;;;;;;;4.33;81.84;95267.94;4980323;28;20246;-85
2021/12/06 10:58:25;;;;;;;13.77;10.17;;;;;;;4.43;81.78;95266.13;4976390;28;20217;-85
2021/12/06 11:00:54;;;;;;;13.67;10.90;;;;;;;4.46;81.86;95272.69;4980773;28;20259;-85
2021/12/06 11:03:31;;;;;;;13.27;10.60;;;;;;;4.46;81.92;95283.66;4982636;28;20220;-85
2021/12/06 11:06:03;;;;;;;14.43;10.50;;;;;;;4.45;82.08;95278.72;4982947;28;20204;-85
2021/12/06 11:08:31;;;;;;;13.80;10.93;;;;;;;4.50;81.80;95279.09;4982732;28;20208;-84
2021/12/06 11:11:00;;;;;;;13.23;10.30;;;;;;;4.56;81.46;95277.72;4981023;28;20287;-84
2021/12/06 11:13:28;;;;;;;13.83;10.53;;;;;;;4.61;81.22;95280.63;4981046;28;20674;-85
2021/12/06 11:15:59;;;;;;;14.50;11.00;;;;;;;4.58;81.87;95276.63;4977877;28;20292;-82
2021/12/06 11:18:33;;;;;;;12.37;10.70;;;;;;;4.59;81.67;95277.41;4978236;28;20220;-82
2021/12/06 11:21:01;;;;;;;12.30;10.70;;;;;;;4.61;81.08;95280.63;4978020;28;20801;-82
2021/12/06 11:23:28;;;;;;;13.37;10.70;;;;;;;4.57;81.98;95279.31;4978426;28;20255;-82
2021/12/06 11:25:57;;;;;;;14.73;10.63;;;;;;;4.56;81.64;95275.97;4976075;28;20212;-82
2021/12/06 11:28:25;;;;;;;14.30;9.70;;;;;;;4.67;81.17;95278.25;4978684;28;20215;-82
2021/12/06 11:30:58;;;;;;;13.80;10.53;;;;;;;4.68;81.36;95279.88;4977816;28;20672;-82
2021/12/06 11:33:30;;;;;;;15.27;11.07;;;;;;;4.61;81.38;95283.16;4978957;28;20279;-81
2021/12/06 11:35:58;;;;;;;29.80;23.17;;;;;;;4.64;81.47;95283.66;4978912;28;20262;-82
2021/12/06 11:38:28;;;;;;;24.63;19.00;;;;;;;4.67;80.70;95285.13;4978370;28;20211;-82
2021/12/06 11:40:57;;;;;;;14.20;12.03;;;;;;;4.69;80.92;95288.31;4978431;28;20235;-82